sensor_id;sensor_type;location;lat;lon;timestamp;P1;durP1;ratioP1;P2;durP2;ratioP2
24873;SDS011;12945;42.648;23.370;2022-09-09T00:01:37;19.17;;;11.60;;
24873;SDS011;12945;42.648;23.370;2022-09-09T00:06:42;17.52;;;11.52;;
24873;SDS011;12945;42.648;23.370;2022-09-09T00:09:21;22.73;;;11.73;;
24873;SDS011;12945;42.648;23.370;2022-09-09T00:11:48;16.75;;;11.27;;
24873;SDS011;12945;42.648;23.370;2022-09-09T00:14:18;18.90;;;11.48;;
24873;SDS011;12945;42.648;23.370;2022-09-09T00:16:49;21.15;;;11.70;;
24873;SDS011;12945;42.648;23.370;2022-09-09T00:21:52;17.88;;;11.93;;
24873;SDS011;12945;42.648;23.370;2022-09-09T00:24:29;15.40;;;11.55;;
24873;SDS011;12945;42.648;23.370;2022-09-09T00:27:00;18.25;;;11.45;;
24873;SDS011;12945;42.648;23.370;2022-09-09T00:31:53;16.60;;;11.77;;
24873;SDS011;12945;42.648;23.370;2022-09-09T00:34:23;15.55;;;11.40;;
24873;SDS011;12945;42.648;23.370;2022-09-09T00:36:50;20.08;;;11.75;;
24873;SDS011;12945;42.648;23.370;2022-09-09T00:39:38;14.55;;;11.40;;
24873;SDS011;12945;42.648;23.370;2022-09-09T00:44:37;17.10;;;11.13;;
24873;SDS011;12945;42.648;23.370;2022-09-09T00:59:52;10.07;;;8.98;;
24873;SDS011;12945;42.648;23.370;2022-09-09T01:04:50;12.80;;;9.77;;
24873;SDS011;12945;42.648;23.370;2022-09-09T01:07:18;12.02;;;9.02;;
24873;SDS011;12945;42.648;23.370;2022-09-09T01:12:14;11.35;;;8.95;;
24873;SDS011;12945;42.648;23.370;2022-09-09T01:14:42;14.60;;;8.88;;
24873;SDS011;12945;42.648;23.370;2022-09-09T01:17:11;11.60;;;9.27;;
24873;SDS011;12945;42.648;23.370;2022-09-09T01:22:30;12.43;;;8.90;;
24873;SDS011;12945;42.648;23.370;2022-09-09T01:27:34;12.63;;;9.20;;
24873;SDS011;12945;42.648;23.370;2022-09-09T01:29:59;13.45;;;9.23;;
24873;SDS011;12945;42.648;23.370;2022-09-09T01:35:02;12.57;;;9.27;;
24873;SDS011;12945;42.648;23.370;2022-09-09T01:37:28;16.13;;;9.50;;
24873;SDS011;12945;42.648;23.370;2022-09-09T01:39:53;15.00;;;9.40;;
24873;SDS011;12945;42.648;23.370;2022-09-09T01:42:19;15.10;;;10.23;;
24873;SDS011;12945;42.648;23.370;2022-09-09T01:44:44;14.95;;;10.65;;
24873;SDS011;12945;42.648;23.370;2022-09-09T01:47:09;13.65;;;11.05;;
24873;SDS011;12945;42.648;23.370;2022-09-09T01:49:35;18.98;;;10.65;;
24873;SDS011;12945;42.648;23.370;2022-09-09T01:52:00;19.95;;;11.27;;
24873;SDS011;12945;42.648;23.370;2022-09-09T01:54:26;17.20;;;11.05;;
24873;SDS011;12945;42.648;23.370;2022-09-09T01:59:45;15.90;;;10.55;;
24873;SDS011;12945;42.648;23.370;2022-09-09T02:02:24;13.52;;;11.18;;
24873;SDS011;12945;42.648;23.370;2022-09-09T02:04:54;13.05;;;10.70;;
24873;SDS011;12945;42.648;23.370;2022-09-09T02:09:51;12.07;;;10.15;;
24873;SDS011;12945;42.648;23.370;2022-09-09T02:12:18;16.15;;;10.50;;
24873;SDS011;12945;42.648;23.370;2022-09-09T02:14:47;15.90;;;10.52;;
24873;SDS011;12945;42.648;23.370;2022-09-09T02:17:13;20.10;;;10.68;;
24873;SDS011;12945;42.648;23.370;2022-09-09T02:19:43;12.73;;;10.80;;
24873;SDS011;12945;42.648;23.370;2022-09-09T02:22:10;13.38;;;10.60;;
24873;SDS011;12945;42.648;23.370;2022-09-09T02:24:37;15.75;;;11.27;;
24873;SDS011;12945;42.648;23.370;2022-09-09T02:27:03;16.10;;;10.75;;
24873;SDS011;12945;42.648;23.370;2022-09-09T02:29:34;12.93;;;10.43;;
24873;SDS011;12945;42.648;23.370;2022-09-09T02:32:01;14.55;;;10.35;;
24873;SDS011;12945;42.648;23.370;2022-09-09T02:34:28;15.45;;;11.07;;
24873;SDS011;12945;42.648;23.370;2022-09-09T02:36:55;11.85;;;10.45;;
24873;SDS011;12945;42.648;23.370;2022-09-09T02:39:22;14.05;;;10.73;;
24873;SDS011;12945;42.648;23.370;2022-09-09T02:41:47;14.95;;;10.70;;
24873;SDS011;12945;42.648;23.370;2022-09-09T02:44:13;14.65;;;10.90;;
24873;SDS011;12945;42.648;23.370;2022-09-09T02:49:08;15.30;;;10.93;;
24873;SDS011;12945;42.648;23.370;2022-09-09T02:51:36;16.70;;;11.75;;
24873;SDS011;12945;42.648;23.370;2022-09-09T02:54:38;22.08;;;12.52;;
24873;SDS011;12945;42.648;23.370;2022-09-09T02:56:57;24.95;;;12.40;;
24873;SDS011;12945;42.648;23.370;2022-09-09T02:59:26;23.63;;;12.93;;
24873;SDS011;12945;42.648;23.370;2022-09-09T03:01:51;16.48;;;12.63;;
24873;SDS011;12945;42.648;23.370;2022-09-09T03:04:18;18.38;;;13.15;;
24873;SDS011;12945;42.648;23.370;2022-09-09T03:06:43;19.45;;;13.25;;
24873;SDS011;12945;42.648;23.370;2022-09-09T03:09:09;23.65;;;14.98;;
24873;SDS011;12945;42.648;23.370;2022-09-09T03:11:35;21.88;;;14.07;;
24873;SDS011;12945;42.648;23.370;2022-09-09T03:14:01;20.25;;;14.70;;
24873;SDS011;12945;42.648;23.370;2022-09-09T03:16:26;23.88;;;14.65;;
24873;SDS011;12945;42.648;23.370;2022-09-09T03:18:51;24.67;;;15.15;;
24873;SDS011;12945;42.648;23.370;2022-09-09T03:21:17;24.30;;;14.82;;
24873;SDS011;12945;42.648;23.370;2022-09-09T03:23:43;23.25;;;14.80;;
24873;SDS011;12945;42.648;23.370;2022-09-09T03:26:09;21.88;;;14.88;;
24873;SDS011;12945;42.648;23.370;2022-09-09T03:28:35;24.48;;;14.48;;
24873;SDS011;12945;42.648;23.370;2022-09-09T03:31:01;22.20;;;14.52;;
24873;SDS011;12945;42.648;23.370;2022-09-09T03:33:26;20.63;;;14.18;;
24873;SDS011;12945;42.648;23.370;2022-09-09T03:35:52;17.20;;;14.05;;
24873;SDS011;12945;42.648;23.370;2022-09-09T03:38:18;19.42;;;14.73;;
24873;SDS011;12945;42.648;23.370;2022-09-09T03:40:52;19.20;;;14.27;;
24873;SDS011;12945;42.648;23.370;2022-09-09T03:43:22;18.60;;;14.45;;
24873;SDS011;12945;42.648;23.370;2022-09-09T03:45:48;21.38;;;14.15;;
24873;SDS011;12945;42.648;23.370;2022-09-09T03:48:13;21.98;;;15.15;;
24873;SDS011;12945;42.648;23.370;2022-09-09T03:50:40;22.58;;;14.88;;
24873;SDS011;12945;42.648;23.370;2022-09-09T03:53:09;30.67;;;14.50;;
24873;SDS011;12945;42.648;23.370;2022-09-09T03:55:34;19.77;;;14.95;;
24873;SDS011;12945;42.648;23.370;2022-09-09T03:58:00;26.40;;;15.13;;
24873;SDS011;12945;42.648;23.370;2022-09-09T04:00:25;20.83;;;15.07;;
24873;SDS011;12945;42.648;23.370;2022-09-09T04:02:51;25.20;;;14.95;;
24873;SDS011;12945;42.648;23.370;2022-09-09T04:05:19;22.75;;;14.63;;
24873;SDS011;12945;42.648;23.370;2022-09-09T04:07:44;20.40;;;13.68;;
24873;SDS011;12945;42.648;23.370;2022-09-09T04:10:09;20.55;;;14.57;;
24873;SDS011;12945;42.648;23.370;2022-09-09T04:12:35;23.13;;;14.90;;
24873;SDS011;12945;42.648;23.370;2022-09-09T04:15:00;23.48;;;15.45;;
24873;SDS011;12945;42.648;23.370;2022-09-09T04:17:27;19.35;;;15.13;;
24873;SDS011;12945;42.648;23.370;2022-09-09T04:19:52;26.50;;;15.35;;
24873;SDS011;12945;42.648;23.370;2022-09-09T04:22:17;26.80;;;14.35;;
24873;SDS011;12945;42.648;23.370;2022-09-09T04:24:43;27.70;;;15.15;;
24873;SDS011;12945;42.648;23.370;2022-09-09T04:27:08;22.92;;;14.95;;
24873;SDS011;12945;42.648;23.370;2022-09-09T04:29:33;26.95;;;15.70;;
24873;SDS011;12945;42.648;23.370;2022-09-09T04:31:58;27.83;;;15.73;;
24873;SDS011;12945;42.648;23.370;2022-09-09T04:34:24;24.17;;;16.08;;
24873;SDS011;12945;42.648;23.370;2022-09-09T04:36:50;21.73;;;15.88;;
24873;SDS011;12945;42.648;23.370;2022-09-09T04:39:16;31.02;;;16.13;;
24873;SDS011;12945;42.648;23.370;2022-09-09T04:41:42;29.35;;;18.42;;
24873;SDS011;12945;42.648;23.370;2022-09-09T04:44:07;34.65;;;17.08;;
24873;SDS011;12945;42.648;23.370;2022-09-09T04:46:32;24.95;;;18.25;;
24873;SDS011;12945;42.648;23.370;2022-09-09T04:48:59;20.40;;;16.30;;
24873;SDS011;12945;42.648;23.370;2022-09-09T04:51:24;29.60;;;16.50;;
24873;SDS011;12945;42.648;23.370;2022-09-09T04:53:50;22.55;;;14.85;;
24873;SDS011;12945;42.648;23.370;2022-09-09T04:56:16;30.20;;;16.63;;
24873;SDS011;12945;42.648;23.370;2022-09-09T04:58:42;28.63;;;16.08;;
24873;SDS011;12945;42.648;23.370;2022-09-09T05:01:09;27.48;;;16.13;;
24873;SDS011;12945;42.648;23.370;2022-09-09T05:03:34;22.13;;;14.82;;
24873;SDS011;12945;42.648;23.370;2022-09-09T05:06:03;20.80;;;13.82;;
24873;SDS011;12945;42.648;23.370;2022-09-09T05:08:29;30.60;;;12.48;;
24873;SDS011;12945;42.648;23.370;2022-09-09T05:10:54;18.88;;;10.80;;
24873;SDS011;12945;42.648;23.370;2022-09-09T05:13:20;18.92;;;11.02;;
24873;SDS011;12945;42.648;23.370;2022-09-09T05:15:51;17.90;;;9.90;;
24873;SDS011;12945;42.648;23.370;2022-09-09T05:18:16;17.25;;;9.18;;
24873;SDS011;12945;42.648;23.370;2022-09-09T05:20:42;18.90;;;8.82;;
24873;SDS011;12945;42.648;23.370;2022-09-09T05:23:07;14.00;;;8.90;;
24873;SDS011;12945;42.648;23.370;2022-09-09T05:25:33;17.05;;;9.30;;
24873;SDS011;12945;42.648;23.370;2022-09-09T05:27:58;13.75;;;9.15;;
24873;SDS011;12945;42.648;23.370;2022-09-09T05:30:24;14.68;;;9.27;;
24873;SDS011;12945;42.648;23.370;2022-09-09T05:32:51;14.80;;;9.75;;
24873;SDS011;12945;42.648;23.370;2022-09-09T05:35:16;13.02;;;8.30;;
24873;SDS011;12945;42.648;23.370;2022-09-09T05:37:44;11.23;;;7.63;;
24873;SDS011;12945;42.648;23.370;2022-09-09T05:40:11;20.45;;;8.85;;
24873;SDS011;12945;42.648;23.370;2022-09-09T05:42:37;13.15;;;8.00;;
24873;SDS011;12945;42.648;23.370;2022-09-09T05:45:04;17.23;;;8.07;;
24873;SDS011;12945;42.648;23.370;2022-09-09T05:47:29;10.07;;;7.13;;
24873;SDS011;12945;42.648;23.370;2022-09-09T05:49:54;12.57;;;7.50;;
24873;SDS011;12945;42.648;23.370;2022-09-09T05:52:20;10.60;;;7.43;;
24873;SDS011;12945;42.648;23.370;2022-09-09T05:54:45;12.40;;;8.05;;
24873;SDS011;12945;42.648;23.370;2022-09-09T05:57:10;16.85;;;8.60;;
24873;SDS011;12945;42.648;23.370;2022-09-09T05:59:36;17.13;;;7.82;;
24873;SDS011;12945;42.648;23.370;2022-09-09T06:02:01;16.08;;;8.30;;
24873;SDS011;12945;42.648;23.370;2022-09-09T06:04:26;15.10;;;8.18;;
24873;SDS011;12945;42.648;23.370;2022-09-09T06:06:51;13.32;;;8.38;;
24873;SDS011;12945;42.648;23.370;2022-09-09T06:09:17;12.70;;;7.78;;
24873;SDS011;12945;42.648;23.370;2022-09-09T06:11:45;11.43;;;8.10;;
24873;SDS011;12945;42.648;23.370;2022-09-09T06:14:10;12.00;;;7.22;;
24873;SDS011;12945;42.648;23.370;2022-09-09T06:16:35;15.52;;;8.13;;
24873;SDS011;12945;42.648;23.370;2022-09-09T06:19:03;9.85;;;7.20;;
24873;SDS011;12945;42.648;23.370;2022-09-09T06:21:32;18.02;;;8.88;;
24873;SDS011;12945;42.648;23.370;2022-09-09T06:23:59;14.45;;;7.72;;
24873;SDS011;12945;42.648;23.370;2022-09-09T06:26:25;11.75;;;7.88;;
24873;SDS011;12945;42.648;23.370;2022-09-09T06:28:51;15.05;;;8.00;;
24873;SDS011;12945;42.648;23.370;2022-09-09T06:31:18;22.73;;;8.50;;
24873;SDS011;12945;42.648;23.370;2022-09-09T06:33:46;13.90;;;7.60;;
24873;SDS011;12945;42.648;23.370;2022-09-09T06:36:12;13.18;;;8.00;;
24873;SDS011;12945;42.648;23.370;2022-09-09T06:38:38;13.82;;;8.30;;
24873;SDS011;12945;42.648;23.370;2022-09-09T06:41:04;11.30;;;8.05;;
24873;SDS011;12945;42.648;23.370;2022-09-09T06:43:31;17.25;;;7.25;;
24873;SDS011;12945;42.648;23.370;2022-09-09T06:45:57;10.90;;;7.88;;
24873;SDS011;12945;42.648;23.370;2022-09-09T06:48:23;15.70;;;8.10;;
24873;SDS011;12945;42.648;23.370;2022-09-09T06:50:48;10.85;;;7.82;;
24873;SDS011;12945;42.648;23.370;2022-09-09T06:53:17;10.68;;;7.28;;
24873;SDS011;12945;42.648;23.370;2022-09-09T06:55:44;21.38;;;7.70;;
24873;SDS011;12945;42.648;23.370;2022-09-09T06:58:09;11.32;;;7.90;;
24873;SDS011;12945;42.648;23.370;2022-09-09T07:00:35;12.68;;;7.88;;
24873;SDS011;12945;42.648;23.370;2022-09-09T07:03:02;14.32;;;8.27;;
24873;SDS011;12945;42.648;23.370;2022-09-09T07:05:28;18.33;;;8.13;;
24873;SDS011;12945;42.648;23.370;2022-09-09T07:07:53;12.40;;;7.70;;
24873;SDS011;12945;42.648;23.370;2022-09-09T07:10:19;12.18;;;7.20;;
24873;SDS011;12945;42.648;23.370;2022-09-09T07:12:44;12.45;;;6.90;;
24873;SDS011;12945;42.648;23.370;2022-09-09T07:15:09;16.77;;;7.38;;
24873;SDS011;12945;42.648;23.370;2022-09-09T07:17:35;15.88;;;7.20;;
24873;SDS011;12945;42.648;23.370;2022-09-09T07:20:01;10.52;;;6.70;;
24873;SDS011;12945;42.648;23.370;2022-09-09T07:22:27;14.88;;;6.63;;
24873;SDS011;12945;42.648;23.370;2022-09-09T07:24:53;8.52;;;6.38;;
24873;SDS011;12945;42.648;23.370;2022-09-09T07:27:18;10.27;;;6.15;;
24873;SDS011;12945;42.648;23.370;2022-09-09T07:29:44;12.15;;;6.50;;
24873;SDS011;12945;42.648;23.370;2022-09-09T07:32:10;10.05;;;5.75;;
24873;SDS011;12945;42.648;23.370;2022-09-09T07:34:35;14.38;;;6.85;;
24873;SDS011;12945;42.648;23.370;2022-09-09T07:37:01;17.92;;;6.55;;
24873;SDS011;12945;42.648;23.370;2022-09-09T07:39:26;15.23;;;6.50;;
24873;SDS011;12945;42.648;23.370;2022-09-09T07:41:52;10.98;;;7.13;;
24873;SDS011;12945;42.648;23.370;2022-09-09T07:44:23;16.58;;;7.03;;
24873;SDS011;12945;42.648;23.370;2022-09-09T07:46:49;15.40;;;7.07;;
24873;SDS011;12945;42.648;23.370;2022-09-09T07:49:15;13.77;;;6.45;;
24873;SDS011;12945;42.648;23.370;2022-09-09T07:51:41;8.77;;;6.72;;
24873;SDS011;12945;42.648;23.370;2022-09-09T07:54:09;15.27;;;6.82;;
24873;SDS011;12945;42.648;23.370;2022-09-09T07:56:34;13.73;;;6.95;;
24873;SDS011;12945;42.648;23.370;2022-09-09T07:59:00;12.65;;;7.30;;
24873;SDS011;12945;42.648;23.370;2022-09-09T08:02:08;17.85;;;6.80;;
24873;SDS011;12945;42.648;23.370;2022-09-09T08:04:18;13.82;;;6.82;;
24873;SDS011;12945;42.648;23.370;2022-09-09T08:06:45;16.17;;;6.38;;
24873;SDS011;12945;42.648;23.370;2022-09-09T08:09:11;13.85;;;6.78;;
24873;SDS011;12945;42.648;23.370;2022-09-09T08:11:37;12.98;;;5.75;;
24873;SDS011;12945;42.648;23.370;2022-09-09T08:14:03;16.27;;;6.32;;
24873;SDS011;12945;42.648;23.370;2022-09-09T08:16:29;12.15;;;6.10;;
24873;SDS011;12945;42.648;23.370;2022-09-09T08:18:56;12.55;;;5.95;;
24873;SDS011;12945;42.648;23.370;2022-09-09T08:21:22;8.82;;;6.10;;
24873;SDS011;12945;42.648;23.370;2022-09-09T08:23:49;9.88;;;5.82;;
24873;SDS011;12945;42.648;23.370;2022-09-09T08:26:16;15.95;;;6.13;;
24873;SDS011;12945;42.648;23.370;2022-09-09T08:28:42;11.63;;;5.90;;
24873;SDS011;12945;42.648;23.370;2022-09-09T08:31:09;11.25;;;6.20;;
24873;SDS011;12945;42.648;23.370;2022-09-09T08:33:35;15.45;;;6.60;;
24873;SDS011;12945;42.648;23.370;2022-09-09T08:36:03;14.88;;;6.35;;
24873;SDS011;12945;42.648;23.370;2022-09-09T08:38:28;13.95;;;5.38;;
24873;SDS011;12945;42.648;23.370;2022-09-09T08:40:53;16.30;;;5.63;;
24873;SDS011;12945;42.648;23.370;2022-09-09T08:43:24;18.90;;;6.32;;
24873;SDS011;12945;42.648;23.370;2022-09-09T08:45:57;13.90;;;5.65;;
24873;SDS011;12945;42.648;23.370;2022-09-09T08:50:57;11.88;;;5.68;;
24873;SDS011;12945;42.648;23.370;2022-09-09T08:53:30;10.23;;;5.43;;
24873;SDS011;12945;42.648;23.370;2022-09-09T08:56:01;15.75;;;5.47;;
24873;SDS011;12945;42.648;23.370;2022-09-09T08:58:34;12.23;;;6.38;;
24873;SDS011;12945;42.648;23.370;2022-09-09T09:06:22;13.90;;;6.10;;
24873;SDS011;12945;42.648;23.370;2022-09-09T09:08:56;16.48;;;5.43;;
24873;SDS011;12945;42.648;23.370;2022-09-09T09:11:23;8.55;;;5.53;;
24873;SDS011;12945;42.648;23.370;2022-09-09T09:13:58;23.65;;;6.40;;
24873;SDS011;12945;42.648;23.370;2022-09-09T09:16:48;16.08;;;6.03;;
24873;SDS011;12945;42.648;23.370;2022-09-09T09:19:15;15.35;;;6.10;;
24873;SDS011;12945;42.648;23.370;2022-09-09T09:21:42;13.10;;;5.97;;
24873;SDS011;12945;42.648;23.370;2022-09-09T09:24:18;13.55;;;6.15;;
24873;SDS011;12945;42.648;23.370;2022-09-09T09:26:44;14.50;;;5.95;;
24873;SDS011;12945;42.648;23.370;2022-09-09T09:29:11;11.43;;;6.35;;
24873;SDS011;12945;42.648;23.370;2022-09-09T09:31:37;13.20;;;5.85;;
24873;SDS011;12945;42.648;23.370;2022-09-09T09:34:02;13.75;;;6.13;;
24873;SDS011;12945;42.648;23.370;2022-09-09T09:36:35;13.73;;;6.60;;
24873;SDS011;12945;42.648;23.370;2022-09-09T09:39:03;12.85;;;6.35;;
24873;SDS011;12945;42.648;23.370;2022-09-09T09:41:38;16.52;;;5.85;;
24873;SDS011;12945;42.648;23.370;2022-09-09T09:44:04;13.32;;;5.95;;
24873;SDS011;12945;42.648;23.370;2022-09-09T09:46:29;16.98;;;7.10;;
24873;SDS011;12945;42.648;23.370;2022-09-09T09:49:02;14.02;;;8.75;;
24873;SDS011;12945;42.648;23.370;2022-09-09T09:51:28;14.52;;;9.27;;
24873;SDS011;12945;42.648;23.370;2022-09-09T09:53:54;12.75;;;6.43;;
24873;SDS011;12945;42.648;23.370;2022-09-09T09:56:30;10.02;;;6.68;;
24873;SDS011;12945;42.648;23.370;2022-09-09T09:58:57;10.52;;;5.90;;
24873;SDS011;12945;42.648;23.370;2022-09-09T10:01:27;12.18;;;6.47;;
24873;SDS011;12945;42.648;23.370;2022-09-09T10:03:57;14.18;;;6.25;;
24873;SDS011;12945;42.648;23.370;2022-09-09T10:06:33;11.57;;;6.05;;
24873;SDS011;12945;42.648;23.370;2022-09-09T10:08:58;11.18;;;5.93;;
24873;SDS011;12945;42.648;23.370;2022-09-09T10:11:30;9.02;;;6.25;;
24873;SDS011;12945;42.648;23.370;2022-09-09T10:14:18;13.60;;;6.35;;
24873;SDS011;12945;42.648;23.370;2022-09-09T10:16:49;12.18;;;5.90;;
24873;SDS011;12945;42.648;23.370;2022-09-09T10:19:30;15.55;;;5.85;;
24873;SDS011;12945;42.648;23.370;2022-09-09T10:26:53;16.95;;;6.53;;
24873;SDS011;12945;42.648;23.370;2022-09-09T10:37:57;11.70;;;5.45;;
24873;SDS011;12945;42.648;23.370;2022-09-09T10:40:13;12.23;;;6.00;;
24873;SDS011;12945;42.648;23.370;2022-09-09T10:42:43;12.82;;;6.38;;
24873;SDS011;12945;42.648;23.370;2022-09-09T10:45:18;13.93;;;6.18;;
24873;SDS011;12945;42.648;23.370;2022-09-09T10:55:57;15.27;;;6.10;;
24873;SDS011;12945;42.648;23.370;2022-09-09T10:58:27;18.08;;;6.38;;
24873;SDS011;12945;42.648;23.370;2022-09-09T11:00:54;9.98;;;6.47;;
24873;SDS011;12945;42.648;23.370;2022-09-09T11:03:22;13.52;;;6.85;;
24873;SDS011;12945;42.648;23.370;2022-09-09T11:05:51;12.35;;;5.80;;
24873;SDS011;12945;42.648;23.370;2022-09-09T11:10:44;14.03;;;6.80;;
24873;SDS011;12945;42.648;23.370;2022-09-09T11:13:17;14.73;;;6.72;;
24873;SDS011;12945;42.648;23.370;2022-09-09T11:15:44;12.27;;;7.07;;
24873;SDS011;12945;42.648;23.370;2022-09-09T11:18:13;15.20;;;6.70;;
24873;SDS011;12945;42.648;23.370;2022-09-09T11:20:40;9.23;;;6.45;;
24873;SDS011;12945;42.648;23.370;2022-09-09T11:23:12;16.35;;;6.32;;
24873;SDS011;12945;42.648;23.370;2022-09-09T11:25:40;13.23;;;6.25;;
24873;SDS011;12945;42.648;23.370;2022-09-09T11:30:48;10.75;;;6.60;;
24873;SDS011;12945;42.648;23.370;2022-09-09T11:38:47;14.52;;;6.97;;
24873;SDS011;12945;42.648;23.370;2022-09-09T11:41:16;15.30;;;6.97;;
24873;SDS011;12945;42.648;23.370;2022-09-09T11:43:45;17.95;;;7.88;;
24873;SDS011;12945;42.648;23.370;2022-09-09T11:46:12;12.88;;;7.10;;
24873;SDS011;12945;42.648;23.370;2022-09-09T11:48:42;11.80;;;7.25;;
24873;SDS011;12945;42.648;23.370;2022-09-09T11:51:25;10.52;;;7.35;;
24873;SDS011;12945;42.648;23.370;2022-09-09T11:53:58;15.40;;;8.05;;
24873;SDS011;12945;42.648;23.370;2022-09-09T11:58:59;14.85;;;7.93;;
24873;SDS011;12945;42.648;23.370;2022-09-09T12:04:00;16.70;;;7.53;;
24873;SDS011;12945;42.648;23.370;2022-09-09T12:09:37;13.55;;;7.43;;
24873;SDS011;12945;42.648;23.370;2022-09-09T12:11:41;13.55;;;7.93;;
24873;SDS011;12945;42.648;23.370;2022-09-09T12:14:54;14.20;;;7.70;;
24873;SDS011;12945;42.648;23.370;2022-09-09T12:16:52;21.83;;;8.65;;
24873;SDS011;12945;42.648;23.370;2022-09-09T12:19:19;22.08;;;8.80;;
24873;SDS011;12945;42.648;23.370;2022-09-09T12:22:07;14.55;;;7.82;;
24873;SDS011;12945;42.648;23.370;2022-09-09T12:24:47;15.43;;;8.07;;
24873;SDS011;12945;42.648;23.370;2022-09-09T12:27:28;13.57;;;8.32;;
24873;SDS011;12945;42.648;23.370;2022-09-09T12:30:07;17.38;;;8.23;;
24873;SDS011;12945;42.648;23.370;2022-09-09T12:32:34;17.10;;;8.52;;
24873;SDS011;12945;42.648;23.370;2022-09-09T12:35:00;16.17;;;8.23;;
24873;SDS011;12945;42.648;23.370;2022-09-09T12:42:45;16.02;;;7.68;;
24873;SDS011;12945;42.648;23.370;2022-09-09T12:52:46;14.38;;;8.25;;
24873;SDS011;12945;42.648;23.370;2022-09-09T12:55:15;17.20;;;7.82;;
24873;SDS011;12945;42.648;23.370;2022-09-09T12:57:42;17.30;;;8.13;;
24873;SDS011;12945;42.648;23.370;2022-09-09T13:00:18;17.05;;;8.02;;
24873;SDS011;12945;42.648;23.370;2022-09-09T13:02:49;13.80;;;7.18;;
24873;SDS011;12945;42.648;23.370;2022-09-09T13:05:16;20.38;;;8.00;;
24873;SDS011;12945;42.648;23.370;2022-09-09T13:07:42;14.45;;;7.70;;
24873;SDS011;12945;42.648;23.370;2022-09-09T13:10:10;15.35;;;8.07;;
24873;SDS011;12945;42.648;23.370;2022-09-09T13:12:36;20.83;;;7.72;;
24873;SDS011;12945;42.648;23.370;2022-09-09T13:15:01;14.35;;;7.53;;
24873;SDS011;12945;42.648;23.370;2022-09-09T13:17:27;17.33;;;7.43;;
24873;SDS011;12945;42.648;23.370;2022-09-09T13:19:54;17.85;;;8.30;;
24873;SDS011;12945;42.648;23.370;2022-09-09T13:22:21;20.52;;;8.02;;
24873;SDS011;12945;42.648;23.370;2022-09-09T13:24:48;18.65;;;7.63;;
24873;SDS011;12945;42.648;23.370;2022-09-09T13:27:31;19.40;;;7.72;;
24873;SDS011;12945;42.648;23.370;2022-09-09T13:29:57;19.00;;;7.20;;
24873;SDS011;12945;42.648;23.370;2022-09-09T13:32:24;14.30;;;7.28;;
24873;SDS011;12945;42.648;23.370;2022-09-09T13:34:53;19.30;;;7.65;;
24873;SDS011;12945;42.648;23.370;2022-09-09T13:39:56;12.23;;;7.25;;
24873;SDS011;12945;42.648;23.370;2022-09-09T13:42:22;14.55;;;7.75;;
24873;SDS011;12945;42.648;23.370;2022-09-09T13:44:50;13.82;;;7.65;;
24873;SDS011;12945;42.648;23.370;2022-09-09T13:49:41;14.93;;;7.63;;
24873;SDS011;12945;42.648;23.370;2022-09-09T13:52:11;15.60;;;7.90;;
24873;SDS011;12945;42.648;23.370;2022-09-09T13:54:36;21.60;;;8.07;;
24873;SDS011;12945;42.648;23.370;2022-09-09T13:57:02;16.33;;;7.95;;
24873;SDS011;12945;42.648;23.370;2022-09-09T13:59:29;16.30;;;8.18;;
24873;SDS011;12945;42.648;23.370;2022-09-09T14:01:54;18.65;;;8.10;;
24873;SDS011;12945;42.648;23.370;2022-09-09T14:04:19;15.38;;;7.60;;
24873;SDS011;12945;42.648;23.370;2022-09-09T14:06:48;14.52;;;7.55;;
24873;SDS011;12945;42.648;23.370;2022-09-09T14:09:14;15.77;;;7.40;;
24873;SDS011;12945;42.648;23.370;2022-09-09T14:11:40;15.60;;;7.75;;
24873;SDS011;12945;42.648;23.370;2022-09-09T14:14:05;16.98;;;8.00;;
24873;SDS011;12945;42.648;23.370;2022-09-09T14:16:31;17.33;;;7.88;;
24873;SDS011;12945;42.648;23.370;2022-09-09T14:18:56;19.73;;;8.20;;
24873;SDS011;12945;42.648;23.370;2022-09-09T14:21:22;21.63;;;7.75;;
24873;SDS011;12945;42.648;23.370;2022-09-09T14:23:47;16.00;;;8.10;;
24873;SDS011;12945;42.648;23.370;2022-09-09T14:26:13;12.10;;;7.80;;
24873;SDS011;12945;42.648;23.370;2022-09-09T14:28:38;18.23;;;7.80;;
24873;SDS011;12945;42.648;23.370;2022-09-09T14:31:05;18.73;;;7.90;;
24873;SDS011;12945;42.648;23.370;2022-09-09T14:33:31;19.23;;;7.82;;
24873;SDS011;12945;42.648;23.370;2022-09-09T14:35:57;12.13;;;7.25;;
24873;SDS011;12945;42.648;23.370;2022-09-09T14:38:23;16.17;;;7.07;;
24873;SDS011;12945;42.648;23.370;2022-09-09T14:40:49;15.23;;;7.10;;
24873;SDS011;12945;42.648;23.370;2022-09-09T14:43:15;15.68;;;7.30;;
24873;SDS011;12945;42.648;23.370;2022-09-09T14:45:40;16.83;;;7.80;;
24873;SDS011;12945;42.648;23.370;2022-09-09T14:48:05;16.30;;;8.33;;
24873;SDS011;12945;42.648;23.370;2022-09-09T14:50:30;13.02;;;7.57;;
24873;SDS011;12945;42.648;23.370;2022-09-09T14:52:56;12.55;;;7.22;;
24873;SDS011;12945;42.648;23.370;2022-09-09T14:55:21;13.48;;;7.95;;
24873;SDS011;12945;42.648;23.370;2022-09-09T14:57:47;22.15;;;7.93;;
24873;SDS011;12945;42.648;23.370;2022-09-09T15:00:12;34.38;;;9.82;;
24873;SDS011;12945;42.648;23.370;2022-09-09T15:02:38;32.00;;;9.05;;
24873;SDS011;12945;42.648;23.370;2022-09-09T15:05:03;18.92;;;7.65;;
24873;SDS011;12945;42.648;23.370;2022-09-09T15:07:29;21.60;;;9.13;;
24873;SDS011;12945;42.648;23.370;2022-09-09T15:09:56;18.15;;;7.82;;
24873;SDS011;12945;42.648;23.370;2022-09-09T15:12:22;15.98;;;7.85;;
24873;SDS011;12945;42.648;23.370;2022-09-09T15:14:47;17.73;;;7.50;;
24873;SDS011;12945;42.648;23.370;2022-09-09T15:17:13;17.45;;;7.70;;
24873;SDS011;12945;42.648;23.370;2022-09-09T15:19:38;17.65;;;8.50;;
24873;SDS011;12945;42.648;23.370;2022-09-09T15:22:04;24.48;;;8.52;;
24873;SDS011;12945;42.648;23.370;2022-09-09T15:24:33;19.55;;;8.25;;
24873;SDS011;12945;42.648;23.370;2022-09-09T15:26:58;14.20;;;7.25;;
24873;SDS011;12945;42.648;23.370;2022-09-09T15:29:24;16.30;;;7.90;;
24873;SDS011;12945;42.648;23.370;2022-09-09T15:31:49;18.25;;;8.05;;
24873;SDS011;12945;42.648;23.370;2022-09-09T15:34:14;18.95;;;7.88;;
24873;SDS011;12945;42.648;23.370;2022-09-09T15:36:43;20.10;;;8.07;;
24873;SDS011;12945;42.648;23.370;2022-09-09T15:39:13;12.43;;;8.13;;
24873;SDS011;12945;42.648;23.370;2022-09-09T15:41:41;14.25;;;7.30;;
24873;SDS011;12945;42.648;23.370;2022-09-09T15:44:06;31.60;;;8.40;;
24873;SDS011;12945;42.648;23.370;2022-09-09T15:46:39;16.88;;;7.88;;
24873;SDS011;12945;42.648;23.370;2022-09-09T15:49:15;21.38;;;8.38;;
24873;SDS011;12945;42.648;23.370;2022-09-09T15:51:43;16.70;;;7.93;;
24873;SDS011;12945;42.648;23.370;2022-09-09T15:54:10;14.70;;;7.75;;
24873;SDS011;12945;42.648;23.370;2022-09-09T15:56:36;19.90;;;8.35;;
24873;SDS011;12945;42.648;23.370;2022-09-09T15:59:02;16.83;;;8.30;;
24873;SDS011;12945;42.648;23.370;2022-09-09T16:01:31;15.60;;;7.72;;
24873;SDS011;12945;42.648;23.370;2022-09-09T16:03:57;21.25;;;9.30;;
24873;SDS011;12945;42.648;23.370;2022-09-09T16:06:23;17.48;;;8.43;;
24873;SDS011;12945;42.648;23.370;2022-09-09T16:08:49;20.73;;;9.15;;
24873;SDS011;12945;42.648;23.370;2022-09-09T16:11:34;19.50;;;9.70;;